Terminal Aerodrome Forecast
Issued by NWS Tulsa, OK

Home | Current Version | Previous Version | Text Only | Print | Product List | Glossary On
Versions: 1 2 3 4 5 6 7 8 9 10 11 12 13
000
FTUS44 KTSA 282300
TAFTUL
TAF
KTUL 282329Z 2900/2924 20012G18KT P6SM BKN250
     FM290400 23010KT P6SM BKN250
     FM290900 33012G18KT P6SM SCT250
     FM291500 36017G25KT P6SM SCT025=

USA.gov is the U.S. government's official web portal to all federal, state and local government web resources and services.